Time;durP1;ratioP1;P1;durP2;ratioP2;P2;SDS_P1;SDS_P2;PMS_P1;PMS_P2;Temp;Humidity;BMP_temperature;BMP_pressure;BME280_temperature;BME280_humidity;BME280_pressure;Samples;Min_cycle;Max_cycle;Signal;HPM_P1;HPM_P2
2024/04/05 00:02:10;;;;;;;;;;;12.10;99.90;;;;;;5077198;28;19916;-76
2024/04/05 00:04:35;;;;;;;;;;;12.10;99.90;;;;;;5095392;28;19923;-78
2024/04/05 00:07:01;;;;;;;;;;;12.10;99.90;;;;;;5095396;28;19919;-78
2024/04/05 00:09:27;;;;;;;;;;;12.10;99.90;;;;;;5059911;28;19912;-78
2024/04/05 00:11:52;;;;;;;;;;;12.10;99.90;;;;;;5061206;28;19920;-78
2024/04/05 00:14:18;;;;;;;;;;;12.10;99.90;;;;;;5082978;28;19973;-78
2024/04/05 00:16:44;;;;;;;;;;;12.10;99.90;;;;;;5078695;28;19976;-78
2024/04/05 00:19:09;;;;;;;;;;;12.10;99.90;;;;;;5059244;28;19924;-78
2024/04/05 00:21:37;;;;;;;;;;;12.10;99.90;;;;;;5079702;28;21328;-78
2024/04/05 00:24:02;;;;;;;;;;;12.10;99.90;;;;;;5081341;28;19954;-78
2024/04/05 00:26:28;;;;;;;;;;;12.10;99.90;;;;;;5055519;28;19916;-78
2024/04/05 00:28:53;;;;;;;;;;;12.10;99.90;;;;;;5076194;28;20316;-78
2024/04/05 00:31:19;;;;;;;;;;;12.00;99.90;;;;;;5056423;28;19913;-78
2024/04/05 00:33:45;;;;;;;;;;;12.00;99.90;;;;;;5041833;28;19916;-78
2024/04/05 00:36:11;;;;;;;;;;;12.00;99.90;;;;;;5058420;28;19916;-78
2024/04/05 00:38:36;;;;;;;;;;;12.00;99.90;;;;;;5076889;28;19993;-77
2024/04/05 00:41:02;;;;;;;;;;;12.00;99.90;;;;;;5062229;28;19967;-78
2024/04/05 00:43:28;;;;;;;;;;;12.00;99.90;;;;;;5056828;28;20541;-78
2024/04/05 00:45:54;;;;;;;;;;;12.00;99.90;;;;;;5056137;28;20390;-78
2024/04/05 00:48:19;;;;;;;;;;;11.90;99.90;;;;;;5039001;28;20698;-78
2024/04/05 00:50:46;;;;;;;;;;;11.90;99.90;;;;;;5056027;28;19978;-78
2024/04/05 00:53:25;;;;;;;;;;;11.90;99.90;;;;;;5039717;28;19913;-78
2024/04/05 00:55:52;;;;;;;;;;;11.90;99.90;;;;;;5049848;28;19926;-78
2024/04/05 00:58:17;;;;;;;;;;;11.90;99.90;;;;;;5056054;28;19920;-78
2024/04/05 01:00:43;;;;;;;;;;;11.90;99.90;;;;;;5039755;28;20335;-77
2024/04/05 01:03:08;;;;;;;;;;;11.80;99.90;;;;;;5062051;28;19912;-78
2024/04/05 01:05:34;;;;;;;;;;;11.80;99.90;;;;;;5039614;28;19917;-78
2024/04/05 01:08:00;;;;;;;;;;;11.80;99.90;;;;;;5056210;28;20003;-77
2024/04/05 01:10:25;;;;;;;;;;;11.80;99.90;;;;;;5039555;28;19927;-78
2024/04/05 01:13:01;;;;;;;;;;;11.80;99.90;;;;;;5055597;28;20394;-78
2024/04/05 01:15:27;;;;;;;;;;;11.80;99.90;;;;;;5039287;28;19913;-77
2024/04/05 01:17:52;;;;;;;;;;;11.70;99.90;;;;;;5053906;28;20026;-78
2024/04/05 01:20:18;;;;;;;;;;;11.70;99.90;;;;;;5055311;28;19924;-77
2024/04/05 01:22:53;;;;;;;;;;;11.70;99.90;;;;;;5039037;28;19955;-78
2024/04/05 01:25:23;;;;;;;;;;;11.60;99.90;;;;;;5022906;28;19912;-78
2024/04/05 01:27:48;;;;;;;;;;;11.60;99.90;;;;;;5055525;28;20416;-79
2024/04/05 01:30:14;;;;;;;;;;;11.60;99.90;;;;;;5035770;28;19995;-78
2024/04/05 01:32:46;;;;;;;;;;;11.60;99.90;;;;;;5014300;28;19942;-78
2024/04/05 01:35:11;;;;;;;;;;;11.60;99.90;;;;;;5036888;28;19912;-78
2024/04/05 01:37:37;;;;;;;;;;;11.50;99.90;;;;;;5072121;28;19951;-78
2024/04/05 01:40:03;;;;;;;;;;;11.50;99.90;;;;;;5060183;28;20551;-78
2024/04/05 01:42:29;;;;;;;;;;;11.50;99.90;;;;;;5059023;28;19923;-78
2024/04/05 01:44:54;;;;;;;;;;;11.50;99.90;;;;;;5064423;28;19916;-78
2024/04/05 01:47:20;;;;;;;;;;;11.50;99.90;;;;;;5074354;28;19911;-78
2024/04/05 01:49:46;;;;;;;;;;;11.50;99.90;;;;;;5060295;28;19927;-78
2024/04/05 01:52:11;;;;;;;;;;;11.50;99.90;;;;;;5079805;28;20517;-78
2024/04/05 01:54:37;;;;;;;;;;;11.50;99.90;;;;;;5067828;28;20325;-78
2024/04/05 01:57:03;;;;;;;;;;;11.50;99.90;;;;;;5051870;28;19959;-78
2024/04/05 01:59:29;;;;;;;;;;;11.50;99.90;;;;;;5079405;28;19927;-78
2024/04/05 02:01:54;;;;;;;;;;;11.50;99.90;;;;;;5060663;28;19919;-78
2024/04/05 02:04:23;;;;;;;;;;;11.40;99.90;;;;;;5051591;28;19920;-78
2024/04/05 02:06:48;;;;;;;;;;;11.40;99.90;;;;;;5063678;28;19951;-78
2024/04/05 02:09:14;;;;;;;;;;;11.40;99.90;;;;;;5080172;28;19935;-78
2024/04/05 02:11:39;;;;;;;;;;;11.40;99.90;;;;;;5046154;28;19912;-78
2024/04/05 02:14:05;;;;;;;;;;;11.40;99.90;;;;;;5062044;28;20007;-77
2024/04/05 02:16:32;;;;;;;;;;;11.40;99.90;;;;;;5070329;28;19972;-77
2024/04/05 02:18:57;;;;;;;;;;;11.40;99.90;;;;;;5055223;28;19955;-78
2024/04/05 02:21:23;;;;;;;;;;;11.40;99.90;;;;;;5078784;28;19958;-78
2024/04/05 02:23:49;;;;;;;;;;;11.40;99.90;;;;;;5068304;28;19912;-78
2024/04/05 02:26:14;;;;;;;;;;;11.30;99.90;;;;;;5097225;28;19966;-78
2024/04/05 02:28:40;;;;;;;;;;;11.30;99.90;;;;;;5096810;28;19955;-78
2024/04/05 02:31:09;;;;;;;;;;;11.30;99.90;;;;;;5046365;28;19930;-78
2024/04/05 02:33:35;;;;;;;;;;;11.30;99.90;;;;;;5078327;28;20240;-78
2024/04/05 02:36:00;;;;;;;;;;;11.40;99.90;;;;;;5061487;28;19923;-78
2024/04/05 02:38:26;;;;;;;;;;;11.30;99.90;;;;;;5096382;28;19920;-78
2024/04/05 02:40:52;;;;;;;;;;;11.30;99.90;;;;;;5078593;28;19924;-78
2024/04/05 02:43:18;;;;;;;;;;;11.30;99.90;;;;;;5061960;28;19916;-78
2024/04/05 02:45:43;;;;;;;;;;;11.30;99.90;;;;;;5042241;28;20347;-79
2024/04/05 02:48:09;;;;;;;;;;;11.30;99.90;;;;;;5076204;28;20221;-79
2024/04/05 02:50:35;;;;;;;;;;;11.30;99.90;;;;;;5047388;28;19923;-78
2024/04/05 02:53:00;;;;;;;;;;;11.30;99.90;;;;;;5060739;28;19918;-79
2024/04/05 02:55:26;;;;;;;;;;;11.30;99.90;;;;;;5045501;28;19912;-79
2024/04/05 02:57:52;;;;;;;;;;;11.30;99.90;;;;;;5062222;28;19995;-79
2024/04/05 03:00:17;;;;;;;;;;;11.30;99.90;;;;;;5060790;28;19981;-79
2024/04/05 03:02:43;;;;;;;;;;;11.30;99.90;;;;;;5079410;28;19916;-79
2024/04/05 03:05:09;;;;;;;;;;;11.30;99.90;;;;;;5061138;28;19912;-78
2024/04/05 03:07:35;;;;;;;;;;;11.30;99.90;;;;;;5075067;28;19927;-79
2024/04/05 03:10:01;;;;;;;;;;;11.30;99.90;;;;;;5075354;28;20291;-79
2024/04/05 03:12:27;;;;;;;;;;;11.30;99.90;;;;;;5078241;28;19948;-79
2024/04/05 03:14:52;;;;;;;;;;;11.30;99.90;;;;;;5078190;28;19990;-79
2024/04/05 03:17:18;;;;;;;;;;;11.20;99.90;;;;;;5094567;28;19927;-79
2024/04/05 03:19:43;;;;;;;;;;;11.30;99.90;;;;;;5061501;28;19924;-78
2024/04/05 03:22:09;;;;;;;;;;;11.30;99.90;;;;;;5077834;28;19912;-78
2024/04/05 03:24:35;;;;;;;;;;;11.30;99.90;;;;;;5114924;28;19916;-79
2024/04/05 03:27:01;;;;;;;;;;;11.30;99.90;;;;;;5060458;28;19912;-78
2024/04/05 03:29:26;;;;;;;;;;;11.30;99.90;;;;;;5074117;28;20248;-78
2024/04/05 03:31:52;;;;;;;;;;;11.30;99.90;;;;;;5075112;28;20248;-78
2024/04/05 03:34:18;;;;;;;;;;;11.30;99.90;;;;;;5060519;28;20335;-78
2024/04/05 03:36:44;;;;;;;;;;;11.40;99.90;;;;;;5095510;28;20364;-78
2024/04/05 03:39:10;;;;;;;;;;;11.30;99.90;;;;;;5060903;28;19916;-78
2024/04/05 03:41:36;;;;;;;;;;;11.30;99.90;;;;;;5063009;28;20540;-78
2024/04/05 03:44:02;;;;;;;;;;;11.30;99.90;;;;;;5060659;28;20326;-78
2024/04/05 03:46:28;;;;;;;;;;;11.30;99.90;;;;;;5057612;28;19966;-78
2024/04/05 03:48:54;;;;;;;;;;;11.30;99.90;;;;;;5057641;28;19913;-78
2024/04/05 03:51:19;;;;;;;;;;;11.40;99.90;;;;;;5057724;28;19997;-78
2024/04/05 03:53:45;;;;;;;;;;;11.30;99.90;;;;;;5074515;28;19925;-79
2024/04/05 03:56:11;;;;;;;;;;;11.30;99.90;;;;;;5033609;28;19918;-78
2024/04/05 03:58:36;;;;;;;;;;;11.40;99.90;;;;;;5058501;28;19919;-78
2024/04/05 04:01:02;;;;;;;;;;;11.40;99.90;;;;;;5077243;28;19912;-78
2024/04/05 04:03:28;;;;;;;;;;;11.30;99.90;;;;;;5054931;28;19916;-78
2024/04/05 04:05:53;;;;;;;;;;;11.40;99.90;;;;;;5040399;28;19912;-79
2024/04/05 04:08:20;;;;;;;;;;;11.40;99.90;;;;;;5059989;28;19915;-78
2024/04/05 04:10:47;;;;;;;;;;;11.40;99.90;;;;;;5058745;28;19958;-79
2024/04/05 04:13:13;;;;;;;;;;;11.40;99.90;;;;;;5059354;28;20024;-79
2024/04/05 04:15:39;;;;;;;;;;;11.40;99.90;;;;;;5043621;28;19923;-78
2024/04/05 04:18:06;;;;;;;;;;;11.40;99.90;;;;;;5074799;28;20282;-78
2024/04/05 04:20:31;;;;;;;;;;;11.40;99.90;;;;;;5076775;28;19928;-78
2024/04/05 04:22:57;;;;;;;;;;;11.40;99.90;;;;;;5094320;28;20623;-79
2024/04/05 04:25:23;;;;;;;;;;;11.40;99.90;;;;;;5070407;28;20015;-78
2024/04/05 04:27:52;;;;;;;;;;;11.40;99.90;;;;;;5056768;28;19916;-78
2024/04/05 04:30:17;;;;;;;;;;;11.40;99.90;;;;;;5075878;28;19920;-78
2024/04/05 04:32:43;;;;;;;;;;;11.50;99.90;;;;;;5059080;28;19921;-79
2024/04/05 04:35:09;;;;;;;;;;;11.40;99.90;;;;;;5073264;28;19911;-78
2024/04/05 04:37:35;;;;;;;;;;;11.40;99.90;;;;;;5084337;28;19964;-78
2024/04/05 04:40:00;;;;;;;;;;;11.40;99.90;;;;;;5071492;28;20366;-78
2024/04/05 04:42:26;;;;;;;;;;;11.30;99.90;;;;;;5075872;28;19923;-78
2024/04/05 04:44:56;;;;;;;;;;;11.40;99.90;;;;;;5077632;28;19955;-78
2024/04/05 04:47:24;;;;;;;;;;;11.30;99.90;;;;;;5065687;28;19926;-79
2024/04/05 04:49:51;;;;;;;;;;;11.30;99.90;;;;;;5069573;28;19919;-78
2024/04/05 04:52:16;;;;;;;;;;;11.30;99.90;;;;;;5072019;28;20523;-79
2024/04/05 04:54:43;;;;;;;;;;;11.30;99.90;;;;;;5060248;28;20004;-79
2024/04/05 04:57:08;;;;;;;;;;;11.30;99.90;;;;;;5060010;28;20005;-79
2024/04/05 04:59:34;;;;;;;;;;;11.30;99.90;;;;;;5064871;28;19952;-78
2024/04/05 05:02:00;;;;;;;;;;;11.30;99.90;;;;;;5069361;28;20003;-78
2024/04/05 05:04:26;;;;;;;;;;;11.30;99.90;;;;;;5051340;28;19912;-78
2024/04/05 05:06:51;;;;;;;;;;;11.30;99.90;;;;;;5060976;28;19997;-78
2024/04/05 05:09:17;;;;;;;;;;;11.30;99.90;;;;;;5068688;28;20294;-79
2024/04/05 05:11:43;;;;;;;;;;;11.30;99.90;;;;;;5064442;28;20016;-79
2024/04/05 05:14:09;;;;;;;;;;;11.30;99.90;;;;;;5047139;28;19916;-79
2024/04/05 05:16:36;;;;;;;;;;;11.40;99.90;;;;;;5076309;28;19921;-79
2024/04/05 05:19:03;;;;;;;;;;;11.40;99.90;;;;;;5063956;28;20389;-79
2024/04/05 05:21:31;;;;;;;;;;;11.40;99.90;;;;;;5059294;28;19959;-79
2024/04/05 05:23:57;;;;;;;;;;;11.40;99.90;;;;;;5062706;28;19980;-79
2024/04/05 05:26:23;;;;;;;;;;;11.40;99.90;;;;;;5046511;28;19912;-79
2024/04/05 05:28:49;;;;;;;;;;;11.40;99.90;;;;;;5041657;28;19923;-79
2024/04/05 05:31:14;;;;;;;;;;;11.50;99.90;;;;;;5062314;28;19913;-79
2024/04/05 05:33:40;;;;;;;;;;;11.50;99.90;;;;;;5064060;28;20723;-79
2024/04/05 05:36:05;;;;;;;;;;;11.50;99.90;;;;;;5065429;28;19916;-79
2024/04/05 05:38:31;;;;;;;;;;;11.50;99.90;;;;;;5062929;28;19944;-79
2024/04/05 05:40:57;;;;;;;;;;;11.50;99.90;;;;;;5073283;28;19928;-77
2024/04/05 05:43:24;;;;;;;;;;;11.50;99.90;;;;;;5053898;28;19916;-78
2024/04/05 05:45:49;;;;;;;;;;;11.60;99.90;;;;;;5079773;28;19923;-77
2024/04/05 05:48:15;;;;;;;;;;;11.60;99.90;;;;;;5057688;28;19916;-76
2024/04/05 05:50:42;;;;;;;;;;;11.60;99.90;;;;;;5054434;28;19916;-78
2024/04/05 05:53:07;;;;;;;;;;;11.70;99.90;;;;;;5079468;28;20043;-77
2024/04/05 05:55:35;;;;;;;;;;;11.70;99.90;;;;;;5052198;28;19919;-77
2024/04/05 05:58:01;;;;;;;;;;;11.70;99.90;;;;;;5056770;28;20003;-77
2024/04/05 06:00:27;;;;;;;;;;;11.90;99.90;;;;;;5043301;28;19920;-77
2024/04/05 06:02:59;;;;;;;;;;;11.90;99.90;;;;;;5071888;28;20222;-77
2024/04/05 06:05:25;;;;;;;;;;;11.90;99.90;;;;;;5042551;28;19927;-77
2024/04/05 06:07:51;;;;;;;;;;;12.00;99.90;;;;;;5075790;28;19916;-77
2024/04/05 06:10:17;;;;;;;;;;;12.00;99.90;;;;;;5044973;28;19915;-77
2024/04/05 06:12:43;;;;;;;;;;;12.00;99.90;;;;;;5078587;28;19919;-77
2024/04/05 06:15:10;;;;;;;;;;;12.10;99.90;;;;;;5060012;28;19920;-78
2024/04/05 06:17:35;;;;;;;;;;;12.20;99.90;;;;;;5078038;28;20008;-78
2024/04/05 06:20:05;;;;;;;;;;;12.10;99.90;;;;;;5058413;28;20007;-79
2024/04/05 06:22:31;;;;;;;;;;;12.20;99.90;;;;;;5098869;28;19962;-79
2024/04/05 06:24:57;;;;;;;;;;;12.20;99.90;;;;;;5060090;28;19956;-79
2024/04/05 06:27:22;;;;;;;;;;;12.20;99.90;;;;;;5070606;28;19927;-79
2024/04/05 06:29:49;;;;;;;;;;;12.30;99.90;;;;;;5086220;28;20316;-79
2024/04/05 06:32:15;;;;;;;;;;;12.30;99.90;;;;;;5064034;28;19916;-79
2024/04/05 06:34:44;;;;;;;;;;;12.30;99.90;;;;;;5090383;28;19916;-79
2024/04/05 06:37:10;;;;;;;;;;;12.40;99.90;;;;;;5056570;28;19916;-79
2024/04/05 06:39:36;;;;;;;;;;;12.50;99.90;;;;;;5076325;28;20006;-79
2024/04/05 06:42:02;;;;;;;;;;;12.50;99.90;;;;;;5070294;28;19956;-79
2024/04/05 06:44:31;;;;;;;;;;;12.50;99.90;;;;;;5059910;28;19994;-79
2024/04/05 06:46:57;;;;;;;;;;;12.50;99.90;;;;;;5074181;28;19912;-79
2024/04/05 06:49:23;;;;;;;;;;;12.60;99.90;;;;;;5076845;28;20045;-79
2024/04/05 06:51:49;;;;;;;;;;;12.70;99.90;;;;;;5067843;28;19946;-79
2024/04/05 06:54:16;;;;;;;;;;;12.70;99.90;;;;;;5037205;28;19976;-79
2024/04/05 06:56:42;;;;;;;;;;;12.80;99.90;;;;;;5095144;28;19916;-79
2024/04/05 06:59:08;;;;;;;;;;;12.80;99.90;;;;;;5055258;28;19935;-79
2024/04/05 07:01:33;;;;;;;;;;;12.80;99.90;;;;;;5041553;28;19965;-79
2024/04/05 07:03:59;;;;;;;;;;;12.80;99.90;;;;;;5076412;28;19913;-79
2024/04/05 07:06:25;;;;;;;;;;;12.90;99.90;;;;;;5079058;28;19923;-79
2024/04/05 07:08:51;;;;;;;;;;;12.90;99.90;;;;;;5092014;28;19912;-79
2024/04/05 07:11:17;;;;;;;;;;;12.90;99.90;;;;;;5062714;28;20283;-78
2024/04/05 07:13:43;;;;;;;;;;;13.00;99.90;;;;;;5071551;28;19917;-79
2024/04/05 07:16:11;;;;;;;;;;;13.00;99.90;;;;;;5083654;28;20037;-77
2024/04/05 07:18:37;;;;;;;;;;;13.00;99.90;;;;;;5055126;28;19912;-78
2024/04/05 07:21:03;;;;;;;;;;;13.10;99.90;;;;;;5077456;28;20293;-78
2024/04/05 07:23:29;;;;;;;;;;;13.10;99.90;;;;;;5057604;28;20295;-78
2024/04/05 07:25:55;;;;;;;;;;;13.10;99.90;;;;;;5060813;28;19923;-78
2024/04/05 07:28:22;;;;;;;;;;;13.20;99.90;;;;;;5096207;28;19916;-78
2024/04/05 07:30:48;;;;;;;;;;;13.20;99.90;;;;;;5062020;28;20002;-77
2024/04/05 07:33:14;;;;;;;;;;;13.30;99.90;;;;;;5077685;28;20012;-78
2024/04/05 07:35:40;;;;;;;;;;;13.30;99.90;;;;;;5093691;28;19916;-78
2024/04/05 07:38:06;;;;;;;;;;;13.30;99.90;;;;;;5062287;28;19942;-78
2024/04/05 07:40:35;;;;;;;;;;;13.30;99.90;;;;;;5056253;28;19932;-78
2024/04/05 07:43:01;;;;;;;;;;;13.40;99.90;;;;;;5059914;28;19912;-78
2024/04/05 07:45:27;;;;;;;;;;;13.40;99.90;;;;;;5043341;28;20226;-78
2024/04/05 07:47:53;;;;;;;;;;;13.40;99.90;;;;;;5077868;28;19924;-77
2024/04/05 07:50:19;;;;;;;;;;;13.40;99.90;;;;;;5094550;28;19916;-78
2024/04/05 07:52:45;;;;;;;;;;;13.50;99.90;;;;;;5040214;28;20355;-78
2024/04/05 07:55:10;;;;;;;;;;;13.50;99.90;;;;;;5065879;28;20311;-78
2024/04/05 07:57:36;;;;;;;;;;;13.50;99.90;;;;;;5044533;28;20267;-78
2024/04/05 08:00:03;;;;;;;;;;;13.60;99.90;;;;;;5072642;28;19917;-78
2024/04/05 08:02:29;;;;;;;;;;;13.60;99.90;;;;;;5077949;28;19972;-78
2024/04/05 08:04:58;;;;;;;;;;;13.60;99.90;;;;;;5073256;28;19912;-78
2024/04/05 08:07:28;;;;;;;;;;;13.70;99.90;;;;;;5080140;28;20412;-79
2024/04/05 08:09:54;;;;;;;;;;;13.80;99.90;;;;;;5074575;28;20328;-78
2024/04/05 08:12:20;;;;;;;;;;;13.90;99.90;;;;;;5070814;28;19963;-78
2024/04/05 08:14:46;;;;;;;;;;;13.90;99.90;;;;;;5043536;28;19916;-78
2024/04/05 08:17:12;;;;;;;;;;;13.90;99.90;;;;;;5043912;28;19919;-78
2024/04/05 08:19:37;;;;;;;;;;;13.90;99.90;;;;;;5056883;28;19916;-78
2024/04/05 08:22:03;;;;;;;;;;;14.00;99.90;;;;;;5048261;28;19923;-78
2024/04/05 08:24:29;;;;;;;;;;;13.90;99.90;;;;;;5078105;28;20006;-78
2024/04/05 08:26:55;;;;;;;;;;;13.90;99.90;;;;;;5078341;28;19916;-78
2024/04/05 08:29:24;;;;;;;;;;;13.90;99.90;;;;;;5055931;28;19980;-79
2024/04/05 08:31:50;;;;;;;;;;;13.90;99.90;;;;;;5074726;28;19913;-78
2024/04/05 08:34:16;;;;;;;;;;;13.90;99.90;;;;;;5070976;28;20225;-78
2024/04/05 08:36:44;;;;;;;;;;;13.90;99.90;;;;;;5073867;28;19927;-78
2024/04/05 08:39:10;;;;;;;;;;;13.90;99.90;;;;;;5077032;28;19920;-78
2024/04/05 08:41:35;;;;;;;;;;;14.00;99.90;;;;;;5073655;28;20368;-79
2024/04/05 08:44:01;;;;;;;;;;;14.00;99.90;;;;;;5040537;28;20013;-78
2024/04/05 08:46:26;;;;;;;;;;;14.00;99.90;;;;;;5056644;28;19923;-78
2024/04/05 08:48:53;;;;;;;;;;;14.00;99.90;;;;;;5058061;28;19916;-78
2024/04/05 08:51:19;;;;;;;;;;;14.00;99.90;;;;;;5047391;28;19947;-78
2024/04/05 08:53:44;;;;;;;;;;;14.10;99.90;;;;;;5039575;28;20499;-78
2024/04/05 08:56:10;;;;;;;;;;;14.10;99.90;;;;;;5021267;28;20375;-78
2024/04/05 08:58:35;;;;;;;;;;;14.20;99.90;;;;;;5012916;28;20007;-79
2024/04/05 09:01:01;;;;;;;;;;;14.20;99.90;;;;;;5010320;28;19923;-79
2024/04/05 09:03:27;;;;;;;;;;;14.20;99.90;;;;;;5017158;28;19912;-79
2024/04/05 09:05:53;;;;;;;;;;;14.20;99.90;;;;;;5062178;28;19912;-79
2024/04/05 09:08:19;;;;;;;;;;;14.20;99.90;;;;;;5034174;28;20014;-79
2024/04/05 09:10:51;;;;;;;;;;;14.30;99.90;;;;;;5082031;28;19952;-79
2024/04/05 09:13:17;;;;;;;;;;;14.30;99.90;;;;;;5050772;28;20363;-80
2024/04/05 09:15:43;;;;;;;;;;;14.30;99.90;;;;;;5046874;28;19913;-80
2024/04/05 09:18:09;;;;;;;;;;;14.30;99.90;;;;;;5024527;28;19931;-79
2024/04/05 09:20:34;;;;;;;;;;;14.30;99.90;;;;;;5037320;28;19928;-79
2024/04/05 09:23:01;;;;;;;;;;;14.30;99.90;;;;;;5021765;28;19947;-79
2024/04/05 09:25:27;;;;;;;;;;;14.30;99.90;;;;;;5044091;28;20394;-79
2024/04/05 09:28:10;;;;;;;;;;;14.40;99.90;;;;;;5046380;28;19972;-79
2024/04/05 09:30:36;;;;;;;;;;;14.40;99.90;;;;;;5028786;28;19917;-79
2024/04/05 09:33:01;;;;;;;;;;;14.50;99.90;;;;;;5044823;28;19912;-79
2024/04/05 09:35:28;;;;;;;;;;;14.50;99.90;;;;;;5030819;28;20640;-79
2024/04/05 09:37:54;;;;;;;;;;;14.60;99.90;;;;;;5025678;28;19923;-79
2024/04/05 09:40:23;;;;;;;;;;;14.70;99.90;;;;;;5052561;28;20237;-78
2024/04/05 09:42:50;;;;;;;;;;;14.90;99.90;;;;;;5061034;28;20506;-79
2024/04/05 09:45:15;;;;;;;;;;;14.90;99.90;;;;;;5077192;28;20371;-79
2024/04/05 09:47:42;;;;;;;;;;;15.00;99.90;;;;;;5094998;28;19916;-79
2024/04/05 09:50:08;;;;;;;;;;;15.00;99.90;;;;;;5078159;28;20533;-79
2024/04/05 09:52:36;;;;;;;;;;;15.10;99.90;;;;;;5076147;28;19912;-79
2024/04/05 09:55:02;;;;;;;;;;;15.20;99.90;;;;;;5106458;28;19951;-79
2024/04/05 09:57:29;;;;;;;;;;;15.20;99.90;;;;;;5063845;28;19931;-79
2024/04/05 09:59:55;;;;;;;;;;;15.20;99.90;;;;;;5060033;28;19920;-78
2024/04/05 10:02:21;;;;;;;;;;;15.30;99.90;;;;;;5090176;28;19919;-79
2024/04/05 10:04:46;;;;;;;;;;;15.30;99.90;;;;;;5046868;28;19919;-79
2024/04/05 10:07:12;;;;;;;;;;;15.40;99.90;;;;;;5045162;28;19912;-79
2024/04/05 10:09:39;;;;;;;;;;;15.40;99.90;;;;;;5079773;28;20590;-78
2024/04/05 10:12:12;;;;;;;;;;;15.40;99.90;;;;;;5075149;28;19916;-79
2024/04/05 10:14:38;;;;;;;;;;;15.50;99.90;;;;;;5043798;28;20011;-79
2024/04/05 10:17:07;;;;;;;;;;;15.50;99.90;;;;;;5069736;28;20011;-79
2024/04/05 10:19:36;;;;;;;;;;;15.50;99.90;;;;;;5068721;28;19920;-78
2024/04/05 10:22:06;;;;;;;;;;;15.50;99.90;;;;;;5079109;28;19923;-77
2024/04/05 10:24:32;;;;;;;;;;;15.50;99.90;;;;;;5068208;28;20069;-79
2024/04/05 10:27:01;;;;;;;;;;;15.50;99.90;;;;;;5081094;28;19955;-79
2024/04/05 10:29:27;;;;;;;;;;;15.60;99.90;;;;;;5063162;28;19912;-79
2024/04/05 10:31:59;;;;;;;;;;;15.60;99.90;;;;;;5045727;28;19918;-79
2024/04/05 10:34:25;;;;;;;;;;;15.60;99.90;;;;;;5078811;28;20446;-79
2024/04/05 10:36:55;;;;;;;;;;;15.60;99.90;;;;;;5065356;28;19952;-78
2024/04/05 10:39:22;;;;;;;;;;;15.60;99.90;;;;;;5095891;28;19916;-78
2024/04/05 10:41:51;;;;;;;;;;;15.70;99.90;;;;;;5075386;28;19927;-78
2024/04/05 10:44:23;;;;;;;;;;;15.70;99.90;;;;;;5062687;28;20300;-79
2024/04/05 10:46:49;;;;;;;;;;;15.70;99.90;;;;;;5064273;28;19962;-79
2024/04/05 10:49:21;;;;;;;;;;;15.70;99.90;;;;;;5088925;28;19977;-79
2024/04/05 10:51:49;;;;;;;;;;;15.70;99.90;;;;;;5046803;28;19965;-78
2024/04/05 10:54:16;;;;;;;;;;;15.70;99.90;;;;;;5061710;28;19912;-78
2024/04/05 10:56:44;;;;;;;;;;;15.70;99.90;;;;;;5045138;28;19916;-79
2024/04/05 10:59:10;;;;;;;;;;;15.80;99.90;;;;;;5096137;28;19948;-79
2024/04/05 11:01:36;;;;;;;;;;;15.80;99.90;;;;;;5056102;28;19955;-78
2024/04/05 11:04:02;;;;;;;;;;;15.80;99.90;;;;;;5062132;28;19916;-79
2024/04/05 11:06:28;;;;;;;;;;;15.80;99.90;;;;;;5062303;28;20023;-79
2024/04/05 11:08:55;;;;;;;;;;;15.80;99.90;;;;;;5096138;28;19962;-79
2024/04/05 11:11:21;;;;;;;;;;;15.90;99.90;;;;;;5093503;28;19916;-78
2024/04/05 11:13:47;;;;;;;;;;;15.90;99.90;;;;;;5076723;28;20015;-79
2024/04/05 11:16:14;;;;;;;;;;;16.00;99.90;;;;;;5058698;28;20003;-78
2024/04/05 11:18:41;;;;;;;;;;;16.00;99.90;;;;;;5061731;28;19912;-78
2024/04/05 11:21:16;;;;;;;;;;;16.00;99.90;;;;;;5100061;28;19927;-78
2024/04/05 11:23:49;;;;;;;;;;;16.10;99.90;;;;;;5074239;28;19927;-78
2024/04/05 11:26:18;;;;;;;;;;;16.20;99.90;;;;;;5044234;28;19916;-78
2024/04/05 11:28:45;;;;;;;;;;;16.20;99.90;;;;;;5043788;28;19915;-78
2024/04/05 11:31:10;;;;;;;;;;;16.30;99.90;;;;;;5094605;28;19912;-78
2024/04/05 11:33:36;;;;;;;;;;;16.30;99.90;;;;;;5096441;28;20002;-78
2024/04/05 11:36:02;;;;;;;;;;;16.30;99.90;;;;;;5061303;28;19989;-78
2024/04/05 11:38:29;;;;;;;;;;;16.30;99.90;;;;;;5060020;28;20399;-78
2024/04/05 11:40:55;;;;;;;;;;;16.40;99.90;;;;;;5062113;28;19977;-78
2024/04/05 11:43:20;;;;;;;;;;;16.40;99.90;;;;;;5090840;28;19916;-78
2024/04/05 11:45:46;;;;;;;;;;;16.40;99.90;;;;;;5094967;28;20039;-78
2024/04/05 11:48:11;;;;;;;;;;;16.50;99.90;;;;;;5082351;28;20359;-78
2024/04/05 11:50:37;;;;;;;;;;;16.50;99.90;;;;;;5070449;28;20723;-78
2024/04/05 11:53:03;;;;;;;;;;;16.50;99.90;;;;;;5065148;28;20002;-78
2024/04/05 11:55:29;;;;;;;;;;;16.60;99.90;;;;;;5077516;28;19916;-79
2024/04/05 11:57:55;;;;;;;;;;;16.60;99.90;;;;;;5062103;28;19912;-78
2024/04/05 12:00:21;;;;;;;;;;;16.70;99.90;;;;;;5093237;28;19981;-78
2024/04/05 12:02:46;;;;;;;;;;;16.70;99.90;;;;;;5095012;28;19912;-78
2024/04/05 12:05:12;;;;;;;;;;;16.70;99.90;;;;;;5062818;28;20366;-78
2024/04/05 12:07:38;;;;;;;;;;;16.70;99.90;;;;;;5055940;28;19926;-78
2024/04/05 12:10:04;;;;;;;;;;;16.80;99.90;;;;;;5099263;28;20316;-78
2024/04/05 12:12:30;;;;;;;;;;;16.80;99.90;;;;;;5066249;28;19912;-78
2024/04/05 12:14:56;;;;;;;;;;;16.80;99.90;;;;;;5055537;28;19926;-78
2024/04/05 12:17:22;;;;;;;;;;;16.80;99.90;;;;;;5061256;28;19912;-78
2024/04/05 12:19:48;;;;;;;;;;;16.80;99.90;;;;;;5043603;28;19965;-77
2024/04/05 12:22:13;;;;;;;;;;;16.80;99.90;;;;;;5077613;28;19966;-78
2024/04/05 12:24:39;;;;;;;;;;;16.80;99.90;;;;;;5075283;28;19919;-78
2024/04/05 12:27:05;;;;;;;;;;;16.80;99.90;;;;;;5078121;28;19923;-78
2024/04/05 12:29:31;;;;;;;;;;;16.90;99.90;;;;;;5065110;28;19916;-78
2024/04/05 12:31:56;;;;;;;;;;;16.80;99.90;;;;;;5094137;28;19912;-78
2024/04/05 12:34:23;;;;;;;;;;;16.80;99.90;;;;;;5046424;28;19912;-78
2024/04/05 12:36:50;;;;;;;;;;;16.90;99.90;;;;;;5057140;28;19924;-78
2024/04/05 12:39:25;;;;;;;;;;;16.90;99.90;;;;;;5074205;28;19916;-78
2024/04/05 12:41:51;;;;;;;;;;;16.80;99.90;;;;;;5076807;28;20030;-78
2024/04/05 12:44:18;;;;;;;;;;;16.90;99.90;;;;;;5073091;28;19962;-78
2024/04/05 12:46:47;;;;;;;;;;;16.90;99.90;;;;;;5065220;28;19922;-77
2024/04/05 12:49:12;;;;;;;;;;;16.90;99.90;;;;;;5043414;28;19912;-77
2024/04/05 12:51:39;;;;;;;;;;;16.80;99.90;;;;;;5069554;28;20366;-77
2024/04/05 12:54:05;;;;;;;;;;;16.90;99.90;;;;;;5076546;28;19974;-78
2024/04/05 12:56:31;;;;;;;;;;;16.90;99.90;;;;;;5076922;28;19943;-77
2024/04/05 12:58:57;;;;;;;;;;;16.90;99.90;;;;;;5078858;28;19966;-78
2024/04/05 13:01:23;;;;;;;;;;;16.90;99.90;;;;;;5110449;28;20023;-78
2024/04/05 13:03:49;;;;;;;;;;;16.90;99.90;;;;;;5097383;28;20635;-78
2024/04/05 13:06:14;;;;;;;;;;;17.00;99.90;;;;;;5069246;28;19994;-78
2024/04/05 13:08:41;;;;;;;;;;;17.00;99.90;;;;;;5109795;28;20316;-79
2024/04/05 13:11:06;;;;;;;;;;;17.00;99.90;;;;;;5085891;28;19999;-78
2024/04/05 13:13:32;;;;;;;;;;;17.00;99.90;;;;;;5076806;28;20334;-78
2024/04/05 13:15:59;;;;;;;;;;;17.00;99.90;;;;;;5062011;28;19916;-79
2024/04/05 13:18:25;;;;;;;;;;;17.00;99.90;;;;;;5079898;28;20236;-79
2024/04/05 13:20:51;;;;;;;;;;;17.00;99.90;;;;;;5096524;28;20453;-78
2024/04/05 13:23:16;;;;;;;;;;;17.00;99.90;;;;;;5050474;28;19961;-79
2024/04/05 13:25:42;;;;;;;;;;;17.00;99.90;;;;;;5091148;28;19916;-78
2024/04/05 13:28:08;;;;;;;;;;;17.00;99.90;;;;;;5076036;28;19916;-78
2024/04/05 13:30:34;;;;;;;;;;;17.00;99.90;;;;;;5075012;28;21322;-78
2024/04/05 13:32:59;;;;;;;;;;;17.00;99.90;;;;;;5043282;28;20615;-78
2024/04/05 13:35:29;;;;;;;;;;;17.10;99.90;;;;;;5076091;28;19951;-78
2024/04/05 13:37:55;;;;;;;;;;;17.10;99.90;;;;;;5065101;28;19931;-78
2024/04/05 13:40:22;;;;;;;;;;;17.20;99.90;;;;;;5092668;28;19971;-78
2024/04/05 13:42:48;;;;;;;;;;;17.30;99.90;;;;;;5080751;28;19916;-78
2024/04/05 13:45:14;;;;;;;;;;;17.30;99.90;;;;;;5048441;28;19916;-78
2024/04/05 13:47:40;;;;;;;;;;;17.30;99.90;;;;;;5079862;28;19913;-78
2024/04/05 13:50:06;;;;;;;;;;;17.40;99.90;;;;;;5062823;28;20286;-79
2024/04/05 13:52:32;;;;;;;;;;;17.40;99.90;;;;;;5097119;28;19916;-78
2024/04/05 13:54:58;;;;;;;;;;;17.50;99.90;;;;;;5046381;28;19916;-77
2024/04/05 13:57:23;;;;;;;;;;;17.50;99.90;;;;;;5056399;28;19928;-78
2024/04/05 13:59:49;;;;;;;;;;;17.50;99.90;;;;;;5079826;28;20306;-79
2024/04/05 14:02:15;;;;;;;;;;;17.50;99.90;;;;;;5059430;28;20421;-77
2024/04/05 14:04:44;;;;;;;;;;;17.50;99.90;;;;;;5062885;28;20351;-78
2024/04/05 14:07:12;;;;;;;;;;;17.50;99.90;;;;;;5079738;28;19953;-78
2024/04/05 14:09:39;;;;;;;;;;;17.60;99.90;;;;;;5062748;28;19916;-78
2024/04/05 14:12:05;;;;;;;;;;;17.50;99.90;;;;;;5078983;28;19915;-78